Time;durP1;ratioP1;P1;durP2;ratioP2;P2;SDS_P1;SDS_P2;PMS_P1;PMS_P2;Temp;Humidity;BMP_temperature;BMP_pressure;BME280_temperature;BME280_humidity;BME280_pressure;Samples;Min_cycle;Max_cycle;Signal;HPM_P1;HPM_P2
2022/01/30 00:02:15;;;;;;;19.77;4.72;;;19.50;47.70;;;;;;4413145;32;20224;-63
2022/01/30 00:04:40;;;;;;;18.13;4.97;;;19.40;47.70;;;;;;4411384;32;20082;-63
2022/01/30 00:07:07;;;;;;;16.48;5.10;;;19.40;47.70;;;;;;4413108;32;20075;-63
2022/01/30 00:09:33;;;;;;;15.27;3.90;;;19.40;47.80;;;;;;4412796;32;20071;-63
2022/01/30 00:12:02;;;;;;;14.98;4.75;;;19.40;47.80;;;;;;4399268;32;20070;-63
2022/01/30 00:14:32;;;;;;;13.77;4.72;;;19.40;47.80;;;;;;4413132;32;20082;-63
2022/01/30 00:17:04;;;;;;;17.27;4.85;;;19.30;47.70;;;;;;4412195;32;20462;-63
2022/01/30 00:19:47;;;;;;;19.40;4.22;;;19.30;47.70;;;;;;4409141;32;20090;-63
2022/01/30 00:24:54;;;;;;;14.63;4.20;;;19.30;47.80;;;;;;4397539;32;20142;-62
2022/01/30 00:27:28;;;;;;;15.80;4.13;;;19.30;47.70;;;;;;4399565;32;20421;-63
2022/01/30 00:29:55;;;;;;;17.75;4.45;;;19.30;47.80;;;;;;4397558;32;20114;-63
2022/01/30 00:32:22;;;;;;;13.65;4.18;;;19.30;47.80;;;;;;4397562;32;20095;-63
2022/01/30 00:34:47;;;;;;;18.48;4.47;;;19.20;47.80;;;;;;4397412;32;20082;-63
2022/01/30 00:37:14;;;;;;;14.32;4.10;;;19.20;47.80;;;;;;4397278;32;20550;-62
2022/01/30 00:39:40;;;;;;;14.55;4.38;;;19.20;47.80;;;;;;4397230;32;20071;-62
2022/01/30 00:42:06;;;;;;;15.75;4.10;;;19.20;47.80;;;;;;4397168;32;20475;-62
2022/01/30 00:44:31;;;;;;;18.15;4.35;;;19.20;47.70;;;;;;4397352;32;20205;-62
2022/01/30 00:46:58;;;;;;;14.10;4.07;;;19.20;47.70;;;;;;4397042;32;20081;-63
2022/01/30 00:49:25;;;;;;;13.27;3.85;;;19.20;47.70;;;;;;4397331;32;20336;-62
2022/01/30 00:51:51;;;;;;;13.20;3.85;;;19.20;47.70;;;;;;4397278;32;20185;-63
2022/01/30 00:54:17;;;;;;;17.50;5.10;;;19.20;47.70;;;;;;4397063;32;20150;-63
2022/01/30 00:56:43;;;;;;;14.15;3.70;;;19.10;47.70;;;;;;4397400;32;20093;-63
2022/01/30 00:59:08;;;;;;;13.70;4.18;;;19.10;47.60;;;;;;4397343;32;20059;-63
2022/01/30 01:01:34;;;;;;;17.23;3.92;;;19.10;47.60;;;;;;4398381;32;20505;-63
2022/01/30 01:04:00;;;;;;;13.25;3.95;;;19.10;47.70;;;;;;4398247;32;20273;-63
2022/01/30 01:06:27;;;;;;;15.35;3.83;;;19.10;47.70;;;;;;4398129;32;20637;-63
2022/01/30 01:08:58;;;;;;;13.13;4.13;;;19.10;47.70;;;;;;4409131;32;20157;-62
2022/01/30 01:11:53;;;;;;;14.20;3.83;;;19.10;47.70;;;;;;4412007;32;20174;-63
2022/01/30 01:25:15;;;;;;;15.57;3.85;;;19.00;47.60;;;;;;4413114;32;20465;-63
2022/01/30 01:27:41;;;;;;;16.10;3.83;;;19.00;47.60;;;;;;4413381;32;20081;-63
2022/01/30 01:30:08;;;;;;;12.70;3.90;;;19.00;47.70;;;;;;4416024;32;20089;-63
2022/01/30 01:32:34;;;;;;;12.45;3.47;;;18.90;47.60;;;;;;4416214;32;20248;-63
2022/01/30 01:35:00;;;;;;;12.63;3.60;;;18.90;47.60;;;;;;4416588;32;20208;-62
2022/01/30 01:37:26;;;;;;;13.60;3.88;;;18.90;47.60;;;;;;4416290;32;20160;-63
2022/01/30 01:39:52;;;;;;;16.08;4.45;;;18.90;47.60;;;;;;4416336;32;20481;-63
2022/01/30 01:42:18;;;;;;;14.05;4.35;;;18.90;47.60;;;;;;4416292;32;20161;-63
2022/01/30 01:44:49;;;;;;;13.18;3.83;;;18.90;47.50;;;;;;4416237;32;20182;-63
2022/01/30 01:47:17;;;;;;;14.45;4.53;;;18.90;47.60;;;;;;4416316;32;20202;-62
2022/01/30 01:49:43;;;;;;;12.30;3.80;;;18.90;47.50;;;;;;4415333;32;20098;-63
2022/01/30 01:54:41;;;;;;;10.75;3.45;;;18.90;47.60;;;;;;4416455;32;20067;-63
2022/01/30 01:57:07;;;;;;;13.55;4.45;;;18.80;47.50;;;;;;4415500;32;20091;-63
2022/01/30 01:59:33;;;;;;;10.75;3.28;;;18.80;47.50;;;;;;4415912;32;20193;-63
2022/01/30 02:02:01;;;;;;;12.63;4.22;;;18.80;47.50;;;;;;4416061;32;20410;-63
2022/01/30 02:04:27;;;;;;;13.40;4.20;;;18.80;47.50;;;;;;4415327;32;20113;-63
2022/01/30 02:09:41;;;;;;;13.23;3.65;;;18.80;47.50;;;;;;4394766;32;20079;-62
2022/01/30 02:12:15;;;;;;;14.27;4.28;;;18.80;47.50;;;;;;4415589;32;20094;-62
2022/01/30 02:14:54;;;;;;;;;;;18.80;47.50;;;;;;4416844;32;20245;-63
2022/01/30 02:25:41;;;;;;;14.10;3.60;;;18.70;47.50;;;;;;4415310;32;20114;-63
2022/01/30 02:28:13;;;;;;;11.35;3.70;;;18.70;47.50;;;;;;4415992;32;20137;-62
2022/01/30 02:30:47;;;;;;;14.05;3.67;;;18.70;47.50;;;;;;4415686;32;20078;-63
2022/01/30 02:33:12;;;;;;;18.10;4.18;;;18.70;47.50;;;;;;4415429;32;20142;-63
2022/01/30 02:35:38;;;;;;;14.45;4.22;;;18.70;47.50;;;;;;4415843;32;20114;-63
2022/01/30 02:38:04;;;;;;;12.00;3.55;;;18.70;47.60;;;;;;4415698;32;20110;-62
2022/01/30 02:40:35;;;;;;;12.30;3.90;;;18.70;47.50;;;;;;4414357;32;20063;-63
2022/01/30 02:43:01;;;;;;;11.05;3.85;;;18.60;47.40;;;;;;4414556;32;20169;-63
2022/01/30 02:45:35;;;;;;;14.40;4.07;;;18.60;47.40;;;;;;4402223;32;20077;-62
2022/01/30 02:50:37;;;;;;;12.57;3.78;;;18.60;47.40;;;;;;4415160;32;20414;-62
2022/01/30 02:53:07;;;;;;;11.32;3.40;;;18.60;47.50;;;;;;4415358;32;20093;-63
2022/01/30 02:55:33;;;;;;;15.30;4.60;;;18.60;47.50;;;;;;4415177;32;20097;-63
2022/01/30 02:57:59;;;;;;;13.80;3.95;;;18.60;47.50;;;;;;4414935;32;20075;-63
2022/01/30 03:00:25;;;;;;;15.90;4.10;;;18.60;47.50;;;;;;4414598;32;20074;-63
2022/01/30 03:02:53;;;;;;;14.30;4.30;;;18.60;47.50;;;;;;4415320;32;20406;-62
2022/01/30 03:05:19;;;;;;;16.40;4.13;;;18.60;47.50;;;;;;4413748;32;20209;-63
2022/01/30 03:07:45;;;;;;;15.35;4.35;;;18.60;47.50;;;;;;4414787;32;20086;-63
2022/01/30 03:10:11;;;;;;;14.75;4.05;;;18.50;47.50;;;;;;4415280;32;20075;-62
2022/01/30 03:12:37;;;;;;;14.02;3.95;;;18.50;47.50;;;;;;4414362;32;20444;-63
2022/01/30 03:15:04;;;;;;;17.05;4.57;;;18.50;47.50;;;;;;4413984;32;20177;-63
2022/01/30 03:17:30;;;;;;;14.38;4.30;;;18.50;47.50;;;;;;4414676;32;20097;-63
2022/01/30 03:19:56;;;;;;;16.13;4.45;;;18.50;47.50;;;;;;4414903;32;20086;-62
2022/01/30 03:22:23;;;;;;;14.48;4.63;;;18.50;47.50;;;;;;4414824;32;20497;-63
2022/01/30 03:24:49;;;;;;;15.52;4.60;;;18.50;47.50;;;;;;4414999;32;20089;-62
2022/01/30 03:27:15;;;;;;;14.05;4.15;;;18.50;47.40;;;;;;4415027;32;20063;-63
2022/01/30 03:29:48;;;;;;;15.52;4.63;;;18.50;47.40;;;;;;4414448;32;20553;-63
2022/01/30 03:32:15;;;;;;;15.15;4.38;;;18.50;47.50;;;;;;4414737;32;20105;-62
2022/01/30 03:34:41;;;;;;;12.82;3.63;;;18.50;47.50;;;;;;4414120;32;20082;-63
2022/01/30 03:37:07;;;;;;;13.60;4.68;;;18.40;47.50;;;;;;4414399;32;20086;-63
2022/01/30 03:39:33;;;;;;;14.90;4.20;;;18.40;47.50;;;;;;4414322;32;20096;-62
2022/01/30 03:41:59;;;;;;;15.68;4.38;;;18.40;47.40;;;;;;4414816;32;20084;-62
2022/01/30 03:44:25;;;;;;;15.88;3.83;;;18.40;47.50;;;;;;4414356;32;20087;-63
2022/01/30 03:46:50;;;;;;;19.45;5.28;;;18.40;47.60;;;;;;4414738;32;20462;-63
2022/01/30 03:49:16;;;;;;;12.52;3.92;;;18.40;47.50;;;;;;4413033;32;20403;-63
2022/01/30 03:51:42;;;;;;;15.77;4.20;;;18.40;47.50;;;;;;4414180;32;20081;-63
2022/01/30 03:54:08;;;;;;;15.63;4.15;;;18.40;47.60;;;;;;4414413;32;20216;-62
2022/01/30 03:56:34;;;;;;;15.43;4.70;;;18.40;47.60;;;;;;4414314;32;20419;-63
2022/01/30 03:59:00;;;;;;;14.45;4.65;;;18.40;47.60;;;;;;4414346;32;20090;-61
2022/01/30 04:01:26;;;;;;;14.27;4.57;;;18.30;47.60;;;;;;4414258;32;20070;-63
2022/01/30 04:03:52;;;;;;;13.45;4.10;;;18.30;47.60;;;;;;4414002;32;20071;-62
2022/01/30 04:06:18;;;;;;;16.20;4.72;;;18.30;47.50;;;;;;4414457;32;20071;-62
2022/01/30 04:08:44;;;;;;;13.65;4.68;;;18.30;47.50;;;;;;4413907;32;20101;-62
2022/01/30 04:11:11;;;;;;;14.40;4.25;;;18.30;47.60;;;;;;4414102;32;20430;-62
2022/01/30 04:13:36;;;;;;;18.08;4.60;;;18.30;47.60;;;;;;4413566;32;20145;-62
2022/01/30 04:16:03;;;;;;;12.70;4.72;;;18.30;47.60;;;;;;4414355;32;20085;-62
2022/01/30 04:18:28;;;;;;;14.95;4.75;;;18.30;47.60;;;;;;4413787;32;20087;-63
2022/01/30 04:20:55;;;;;;;17.77;4.65;;;18.30;47.60;;;;;;4414228;32;20272;-62
2022/01/30 04:23:20;;;;;;;16.35;4.40;;;18.30;47.60;;;;;;4400214;32;20401;-62
2022/01/30 04:25:46;;;;;;;14.35;4.25;;;18.30;47.60;;;;;;4413603;32;20220;-63
2022/01/30 04:28:13;;;;;;;13.00;4.18;;;18.30;47.60;;;;;;4414277;32;20101;-63
2022/01/30 04:30:39;;;;;;;16.65;3.92;;;18.30;47.70;;;;;;4413632;32;20142;-62
2022/01/30 04:33:06;;;;;;;16.80;5.20;;;18.20;47.70;;;;;;4413853;32;20102;-63
2022/01/30 04:35:32;;;;;;;15.70;4.53;;;18.20;47.70;;;;;;4413567;32;20101;-63
2022/01/30 04:38:12;;;;;;;15.32;4.95;;;18.20;47.60;;;;;;4412713;32;20079;-62
2022/01/30 04:59:18;;;;;;;;;;;18.10;47.70;;;;;;4414339;32;20211;-62
2022/01/30 05:04:38;;;;;;;12.73;3.97;;;18.10;47.80;;;;;;4416858;32;20162;-63
2022/01/30 05:09:31;;;;;;;14.10;4.32;;;18.10;47.80;;;;;;4419031;32;20500;-63
2022/01/30 05:11:56;;;;;;;16.02;4.75;;;18.10;47.80;;;;;;4418391;32;20212;-63
2022/01/30 05:14:25;;;;;;;12.57;4.72;;;18.10;47.80;;;;;;4418514;32;20128;-62
2022/01/30 05:16:52;;;;;;;13.18;4.47;;;18.10;47.80;;;;;;4418365;32;20232;-63
2022/01/30 05:19:18;;;;;;;15.23;4.65;;;18.10;47.80;;;;;;4418854;32;20508;-63
2022/01/30 05:21:44;;;;;;;16.60;4.65;;;18.10;47.80;;;;;;4417979;32;20089;-63
2022/01/30 05:24:10;;;;;;;13.05;4.28;;;18.10;47.70;;;;;;4418254;32;20075;-63
2022/01/30 05:26:42;;;;;;;15.30;4.75;;;18.10;47.80;;;;;;4418685;32;20083;-63
2022/01/30 05:29:09;;;;;;;15.13;4.53;;;18.10;47.80;;;;;;4418814;32;20086;-63
2022/01/30 05:31:35;;;;;;;16.23;5.22;;;18.10;47.80;;;;;;4418546;32;20212;-63
2022/01/30 05:34:02;;;;;;;16.33;4.50;;;18.10;47.80;;;;;;4418494;32;20078;-63
2022/01/30 05:36:30;;;;;;;14.30;4.72;;;18.00;47.70;;;;;;4418453;32;20075;-63
2022/01/30 05:38:57;;;;;;;13.95;4.60;;;18.00;47.80;;;;;;4418123;32;20090;-63
2022/01/30 05:41:24;;;;;;;16.35;4.43;;;18.00;47.70;;;;;;4418509;32;20521;-63
2022/01/30 05:43:54;;;;;;;15.95;4.90;;;18.00;47.80;;;;;;4417880;32;20153;-63
2022/01/30 05:46:39;;;;;;;15.27;4.78;;;18.00;47.80;;;;;;4418617;32;20082;-62
2022/01/30 05:49:05;;;;;;;15.98;4.43;;;18.00;47.80;;;;;;4418212;32;20102;-63
2022/01/30 05:51:31;;;;;;;14.38;4.90;;;18.00;47.80;;;;;;4418381;32;20632;-63
2022/01/30 05:53:57;;;;;;;17.27;4.82;;;18.00;47.80;;;;;;4406055;32;20063;-63
2022/01/30 05:56:22;;;;;;;15.35;4.97;;;18.00;47.80;;;;;;4404408;32;20063;-62
2022/01/30 05:58:49;;;;;;;17.58;4.72;;;18.00;47.80;;;;;;4402099;32;20083;-63
2022/01/30 06:01:15;;;;;;;17.08;4.80;;;18.00;47.80;;;;;;4413733;32;20135;-63
2022/01/30 06:03:40;;;;;;;17.55;4.65;;;18.00;47.80;;;;;;4416953;32;20147;-63
2022/01/30 06:06:08;;;;;;;16.13;4.45;;;17.90;47.80;;;;;;4417054;32;20164;-63
2022/01/30 06:11:07;;;;;;;19.50;4.93;;;18.00;47.90;;;;;;4402018;32;20094;-63
2022/01/30 06:13:32;;;;;;;17.20;5.03;;;17.90;47.80;;;;;;4401844;32;20071;-63
2022/01/30 06:15:59;;;;;;;13.68;4.55;;;17.90;47.80;;;;;;4400191;32;20055;-63
2022/01/30 06:18:25;;;;;;;17.35;4.82;;;17.90;47.80;;;;;;4407682;32;20110;-63
2022/01/30 06:20:52;;;;;;;19.52;5.25;;;17.90;47.80;;;;;;4413621;32;20186;-63
2022/01/30 06:23:17;;;;;;;17.02;4.75;;;17.90;47.80;;;;;;4414907;32;20525;-63
2022/01/30 06:25:43;;;;;;;14.63;4.13;;;17.90;48.70;;;;;;4414911;32;20082;-63
2022/01/30 06:28:09;;;;;;;15.13;4.63;;;17.90;47.80;;;;;;4414693;32;20228;-63
2022/01/30 06:30:35;;;;;;;16.13;4.93;;;17.90;47.90;;;;;;4414706;32;20133;-63
2022/01/30 06:33:01;;;;;;;16.90;4.53;;;17.90;47.90;;;;;;4414604;32;20133;-63
2022/01/30 06:35:27;;;;;;;17.80;5.10;;;17.90;47.90;;;;;;4425611;32;20102;-63
2022/01/30 06:37:53;;;;;;;13.50;4.50;;;17.80;47.80;;;;;;4414507;32;20075;-63
2022/01/30 06:40:19;;;;;;;14.00;4.47;;;17.90;47.90;;;;;;4398848;32;20173;-63
2022/01/30 06:42:45;;;;;;;17.70;4.95;;;17.80;47.80;;;;;;4398902;32;20546;-63
2022/01/30 06:45:11;;;;;;;16.70;5.13;;;17.80;47.80;;;;;;4399650;32;20145;-63
2022/01/30 06:47:43;;;;;;;17.75;5.15;;;17.80;47.80;;;;;;4400195;32;20213;-63
2022/01/30 06:50:10;;;;;;;14.68;4.55;;;17.80;47.80;;;;;;4399699;32;20153;-63
2022/01/30 06:52:36;;;;;;;14.18;4.70;;;17.80;47.70;;;;;;4400346;32;20079;-63
2022/01/30 06:55:04;;;;;;;16.70;5.07;;;17.80;47.80;;;;;;4399093;32;20518;-63
2022/01/30 06:57:30;;;;;;;14.65;4.68;;;17.80;47.80;;;;;;4410225;32;20070;-63
2022/01/30 06:59:55;;;;;;;14.95;4.43;;;17.80;47.80;;;;;;4410561;32;20089;-62
2022/01/30 07:02:21;;;;;;;16.45;4.38;;;17.80;47.80;;;;;;4415218;32;20118;-63
2022/01/30 07:04:48;;;;;;;13.65;4.38;;;17.80;47.80;;;;;;4415377;32;20160;-63
2022/01/30 07:07:14;;;;;;;17.25;5.15;;;17.80;47.80;;;;;;4414887;32;20090;-63
2022/01/30 07:09:40;;;;;;;17.13;5.13;;;17.70;47.80;;;;;;4415045;32;20292;-63
2022/01/30 07:12:06;;;;;;;14.25;4.93;;;17.70;47.80;;;;;;4413721;32;20103;-63
2022/01/30 07:14:32;;;;;;;17.38;5.30;;;17.70;47.80;;;;;;4414633;32;20143;-63
2022/01/30 07:16:59;;;;;;;16.77;4.78;;;17.70;47.80;;;;;;4414736;32;20540;-63
2022/01/30 07:19:25;;;;;;;15.88;4.68;;;17.70;47.90;;;;;;4414876;32;20252;-63
2022/01/30 07:21:51;;;;;;;13.98;4.50;;;17.70;47.80;;;;;;4414908;32;20086;-62
2022/01/30 07:24:17;;;;;;;15.45;4.40;;;17.70;47.80;;;;;;4414784;32;20070;-63
2022/01/30 07:26:43;;;;;;;14.57;4.70;;;17.70;47.80;;;;;;4425877;32;20070;-63
2022/01/30 07:29:10;;;;;;;12.75;4.10;;;17.70;47.90;;;;;;4414826;32;20085;-63
2022/01/30 07:31:36;;;;;;;18.58;4.65;;;17.70;47.90;;;;;;4414478;32;20094;-63
2022/01/30 07:34:02;;;;;;;15.13;4.80;;;17.70;47.90;;;;;;4414430;32;20085;-63
2022/01/30 07:36:30;;;;;;;14.45;4.93;;;17.70;47.90;;;;;;4414638;32;20441;-62
2022/01/30 07:38:56;;;;;;;13.65;4.53;;;17.70;47.90;;;;;;4414314;32;20086;-63
2022/01/30 07:41:22;;;;;;;11.52;4.15;;;17.70;47.90;;;;;;4414842;32;20512;-63
2022/01/30 07:43:49;;;;;;;15.55;4.22;;;17.70;47.80;;;;;;4414579;32;20154;-62
2022/01/30 07:46:15;;;;;;;17.00;5.18;;;17.60;47.80;;;;;;4412945;32;20313;-63
2022/01/30 07:48:41;;;;;;;16.55;4.65;;;17.60;47.90;;;;;;4414692;32;20071;-62
2022/01/30 07:51:07;;;;;;;13.25;4.57;;;17.60;48.80;;;;;;4414336;32;20366;-63
2022/01/30 07:53:36;;;;;;;14.75;4.28;;;17.60;47.90;;;;;;4414568;32;20096;-62
2022/01/30 07:56:02;;;;;;;14.00;4.80;;;17.60;47.90;;;;;;4414130;32;20075;-63
2022/01/30 07:58:28;;;;;;;15.32;4.65;;;17.60;47.90;;;;;;4414094;32;20537;-63
2022/01/30 08:00:54;;;;;;;14.48;4.43;;;17.60;47.90;;;;;;4425986;32;20179;-63
2022/01/30 08:03:20;;;;;;;16.45;4.28;;;17.60;47.90;;;;;;4414007;32;20477;-63
2022/01/30 08:05:46;;;;;;;13.25;4.43;;;17.60;47.90;;;;;;4414186;32;20079;-62
2022/01/30 08:08:12;;;;;;;15.73;4.72;;;17.60;48.00;;;;;;4425399;32;20410;-63
2022/01/30 08:10:37;;;;;;;14.75;5.00;;;17.50;47.90;;;;;;4414134;32;20177;-63
2022/01/30 08:13:03;;;;;;;16.42;4.68;;;17.60;48.00;;;;;;4413676;32;20090;-63
2022/01/30 08:15:29;;;;;;;14.15;4.32;;;17.50;47.90;;;;;;4414058;32;20098;-62
2022/01/30 08:17:55;;;;;;;17.13;4.95;;;17.50;47.90;;;;;;4414297;32;20106;-63
2022/01/30 08:20:24;;;;;;;13.50;4.10;;;17.50;47.90;;;;;;4413899;32;20095;-63
2022/01/30 08:22:52;;;;;;;14.27;4.35;;;17.50;47.90;;;;;;4414022;32;20217;-62
2022/01/30 08:25:23;;;;;;;14.73;4.22;;;17.50;48.00;;;;;;4413647;32;20196;-63
2022/01/30 08:27:51;;;;;;;17.17;4.95;;;17.50;47.90;;;;;;4414177;32;20502;-63
2022/01/30 08:30:17;;;;;;;13.77;4.15;;;17.50;48.00;;;;;;4413649;32;20538;-63
2022/01/30 08:32:46;;;;;;;14.00;4.28;;;17.50;48.00;;;;;;4413690;32;20430;-63
2022/01/30 08:35:14;;;;;;;13.77;4.40;;;17.50;48.00;;;;;;4413357;32;20093;-63
2022/01/30 08:37:41;;;;;;;37.33;4.85;;;17.50;48.10;;;;;;4413507;32;20075;-63
2022/01/30 08:40:10;;;;;;;17.83;4.88;;;17.50;48.00;;;;;;4413277;32;20083;-63
2022/01/30 08:42:36;;;;;;;20.08;5.22;;;17.50;47.50;;;;;;4413661;32;20098;-63
2022/01/30 08:45:04;;;;;;;23.10;5.97;;;17.50;46.70;;;;;;4413436;32;20148;-63
2022/01/30 08:47:30;;;;;;;21.33;6.03;;;17.40;46.10;;;;;;4413538;32;20094;-63
2022/01/30 08:49:56;;;;;;;28.70;6.60;;;17.40;45.60;;;;;;4413693;32;20107;-63
2022/01/30 08:52:22;;;;;;;28.88;6.32;;;17.40;45.60;;;;;;4425054;32;20216;-63
2022/01/30 08:54:51;;;;;;;26.60;6.07;;;17.40;46.00;;;;;;4413616;32;20079;-63
2022/01/30 08:57:18;;;;;;;21.55;5.60;;;17.50;46.20;;;;;;4413442;32;20098;-63
2022/01/30 08:59:44;;;;;;;25.50;5.38;;;17.40;46.20;;;;;;4413602;32;20074;-63
2022/01/30 09:02:10;;;;;;;25.27;5.78;;;17.40;46.30;;;;;;4413152;32;20141;-63
2022/01/30 09:04:36;;;;;;;22.15;5.75;;;17.40;46.50;;;;;;4413520;32;20123;-63
2022/01/30 09:07:02;;;;;;;25.80;5.68;;;17.40;46.50;;;;;;4413355;32;20494;-63
2022/01/30 09:09:30;;;;;;;23.50;6.07;;;17.40;46.50;;;;;;4413058;32;20189;-63
2022/01/30 09:11:59;;;;;;;20.52;6.13;;;17.40;46.40;;;;;;4413823;32;20264;-63
2022/01/30 09:14:26;;;;;;;17.60;5.35;;;17.40;46.50;;;;;;4412773;32;20433;-63
2022/01/30 09:16:52;;;;;;;21.95;5.97;;;17.50;46.50;;;;;;4413741;32;20091;-63
2022/01/30 09:19:18;;;;;;;18.00;5.13;;;17.50;46.50;;;;;;4413231;32;20087;-63
2022/01/30 09:21:44;;;;;;;20.73;5.65;;;17.50;46.50;;;;;;4424970;32;20548;-62
2022/01/30 09:24:13;;;;;;;21.52;5.38;;;17.60;46.50;;;;;;4413384;32;20584;-63
2022/01/30 09:26:39;;;;;;;19.20;5.35;;;17.70;46.40;;;;;;4413475;32;20105;-63
2022/01/30 09:29:05;;;;;;;21.95;6.20;;;17.70;46.30;;;;;;4413446;32;20549;-63
2022/01/30 09:31:31;;;;;;;21.58;5.70;;;17.90;46.10;;;;;;4424826;32;20099;-63
2022/01/30 09:33:57;;;;;;;18.88;5.00;;;18.00;46.80;;;;;;4413451;32;20070;-63
2022/01/30 09:36:23;;;;;;;21.58;5.95;;;18.10;45.70;;;;;;4413378;32;20410;-62
2022/01/30 09:38:50;;;;;;;19.20;5.22;;;18.20;45.50;;;;;;4413589;32;20196;-63
2022/01/30 09:41:16;;;;;;;17.17;4.85;;;18.30;45.30;;;;;;4413269;32;20217;-63
2022/01/30 09:43:44;;;;;;;20.20;5.10;;;18.40;45.10;;;;;;4413433;32;20141;-62
2022/01/30 09:46:11;;;;;;;17.73;5.15;;;18.60;45.00;;;;;;4413041;32;20070;-63
2022/01/30 09:48:38;;;;;;;18.02;5.13;;;18.70;44.80;;;;;;4411002;32;20099;-64
2022/01/30 09:51:07;;;;;;;19.75;5.97;;;18.70;44.50;;;;;;4414764;32;20098;-63
2022/01/30 09:53:34;;;;;;;16.98;5.05;;;18.80;44.40;;;;;;4415396;32;20505;-64
2022/01/30 09:56:03;;;;;;;18.13;4.90;;;19.00;44.40;;;;;;4416103;32;20429;-64
2022/01/30 09:58:30;;;;;;;19.48;5.38;;;19.10;44.20;;;;;;4414693;32;20406;-63
2022/01/30 10:00:57;;;;;;;16.25;5.43;;;19.20;44.00;;;;;;4415984;32;20130;-64
2022/01/30 10:03:26;;;;;;;17.95;4.53;;;19.30;43.90;;;;;;4415626;32;20641;-64
2022/01/30 10:06:09;;;;;;;16.33;4.60;;;19.40;43.70;;;;;;4415462;32;20137;-64
2022/01/30 10:08:42;;;;;;;21.23;5.22;;;19.50;43.50;;;;;;4414748;32;20070;-64
2022/01/30 10:14:14;;;;;;;19.25;5.60;;;19.70;43.20;;;;;;4415240;32;20094;-64
2022/01/30 10:16:48;;;;;;;18.10;5.03;;;19.80;43.10;;;;;;4415615;32;20126;-63
2022/01/30 10:19:24;;;;;;;16.80;5.10;;;19.90;42.90;;;;;;4415852;32;20067;-64
2022/01/30 10:22:08;;;;;;;15.65;4.43;;;20.00;42.80;;;;;;4415381;32;20092;-64
2022/01/30 10:24:40;;;;;;;12.02;4.50;;;20.10;42.70;;;;;;4409530;32;20101;-63
2022/01/30 10:27:27;;;;;;;15.80;4.30;;;20.20;42.50;;;;;;4387020;32;24052;-63
2022/01/30 10:30:06;;;;;;;17.08;4.63;;;20.30;42.40;;;;;;4413568;32;20102;-63
2022/01/30 10:32:33;;;;;;;20.58;5.55;;;20.40;42.20;;;;;;4415375;32;20094;-63
2022/01/30 10:35:09;;;;;;;13.52;4.18;;;20.40;42.00;;;;;;4415561;32;20071;-63
2022/01/30 10:37:39;;;;;;;15.75;4.93;;;20.50;41.90;;;;;;4414946;32;20114;-63
2022/01/30 10:40:12;;;;;;;18.48;4.88;;;20.60;41.80;;;;;;4415746;32;20308;-64
2022/01/30 10:42:46;;;;;;;22.02;4.80;;;20.60;41.70;;;;;;4415110;32;20222;-63
2022/01/30 10:45:12;;;;;;;19.95;4.38;;;20.70;41.70;;;;;;4411169;32;20244;-64
2022/01/30 10:47:39;;;;;;;15.48;4.40;;;20.80;41.70;;;;;;4414341;32;20098;-64
2022/01/30 10:50:17;;;;;;;14.57;4.57;;;20.80;41.60;;;;;;4415263;32;20618;-63
2022/01/30 10:52:53;;;;;;;16.08;4.93;;;20.90;42.60;;;;;;4415314;32;20101;-63
2022/01/30 10:55:35;;;;;;;16.45;4.43;;;20.90;41.60;;;;;;4415567;32;20596;-63
2022/01/30 10:58:02;;;;;;;15.73;5.22;;;21.00;41.60;;;;;;4415598;32;20117;-63
2022/01/30 11:00:48;;;;;;;13.65;4.50;;;21.10;41.60;;;;;;4414314;32;20525;-64
2022/01/30 11:03:38;;;;;;;22.58;4.97;;;21.20;41.60;;;;;;4414583;32;20189;-63
2022/01/30 11:06:08;;;;;;;12.00;4.15;;;21.20;41.50;;;;;;4414695;32;20517;-63
2022/01/30 11:08:35;;;;;;;24.17;5.25;;;21.30;41.50;;;;;;4415167;32;20071;-64
2022/01/30 11:11:47;;;;;;;19.48;4.65;;;21.30;41.40;;;;;;4413276;32;20421;-63
2022/01/30 11:14:34;;;;;;;15.43;5.20;;;21.30;41.30;;;;;;4404820;32;20098;-63
2022/01/30 11:19:37;;;;;;;22.90;5.95;;;21.30;40.30;;;;;;4413724;32;20522;-63
2022/01/30 11:22:06;;;;;;;20.38;5.55;;;21.30;39.90;;;;;;4414745;32;20105;-63
2022/01/30 11:24:38;;;;;;;25.58;5.85;;;21.20;39.50;;;;;;4414039;32;20142;-63
2022/01/30 11:27:05;;;;;;;26.95;6.10;;;21.10;39.40;;;;;;4414105;32;20141;-63
2022/01/30 11:29:35;;;;;;;28.10;5.93;;;21.00;39.20;;;;;;4412084;32;20174;-63
2022/01/30 11:32:02;;;;;;;26.70;5.88;;;20.90;39.40;;;;;;4413589;32;20087;-63
2022/01/30 11:34:29;;;;;;;22.50;5.78;;;20.80;39.60;;;;;;4424784;32;20067;-63
2022/01/30 11:36:56;;;;;;;22.40;5.25;;;20.70;39.80;;;;;;4412267;32;27670;-63
2022/01/30 11:39:32;;;;;;;21.35;5.80;;;20.60;40.00;;;;;;4428794;32;20168;-63
2022/01/30 11:42:11;;;;;;;24.73;6.05;;;20.60;40.30;;;;;;4428775;32;20496;-63
2022/01/30 11:44:38;;;;;;;20.45;5.45;;;20.60;40.50;;;;;;4428101;32;20078;-63
2022/01/30 11:47:04;;;;;;;24.00;5.72;;;20.60;40.60;;;;;;4427063;32;20071;-63
2022/01/30 11:49:50;;;;;;;20.05;5.20;;;20.70;40.80;;;;;;4428059;32;20088;-63
2022/01/30 11:52:40;;;;;;;24.85;5.57;;;20.70;40.90;;;;;;4426991;32;20168;-63
2022/01/30 11:55:06;;;;;;;25.23;5.22;;;20.80;40.90;;;;;;4427216;32;20122;-64
2022/01/30 11:57:32;;;;;;;24.75;5.97;;;20.80;41.90;;;;;;4420604;32;20203;-64
2022/01/30 12:00:02;;;;;;;18.70;4.88;;;20.80;41.00;;;;;;4417427;32;20213;-63
2022/01/30 12:02:31;;;;;;;12.30;4.78;;;20.90;41.00;;;;;;4419432;32;20097;-63
2022/01/30 12:04:56;;;;;;;22.05;5.70;;;20.90;41.10;;;;;;4428720;32;20121;-63
2022/01/30 12:07:36;;;;;;;17.80;4.68;;;20.90;41.10;;;;;;4429118;32;20156;-63
2022/01/30 12:10:20;;;;;;;14.27;5.55;;;20.90;41.10;;;;;;4413132;32;20636;-64
2022/01/30 12:12:59;;;;;;;23.23;5.05;;;20.90;41.30;;;;;;4427428;32;20622;-63
2022/01/30 12:15:45;;;;;;;17.70;5.20;;;20.90;41.40;;;;;;4427489;32;20078;-63
2022/01/30 12:18:12;;;;;;;19.40;5.05;;;20.90;41.40;;;;;;4429007;32;20498;-64
2022/01/30 12:20:57;;;;;;;21.73;5.18;;;20.90;41.60;;;;;;4428125;32;20120;-64
2022/01/30 12:23:35;;;;;;;20.45;5.47;;;20.90;41.70;;;;;;4428939;32;20105;-63
2022/01/30 12:26:08;;;;;;;15.00;4.47;;;20.90;41.70;;;;;;4428013;32;20085;-64
2022/01/30 12:28:51;;;;;;;15.55;4.78;;;20.90;41.80;;;;;;4427469;32;20164;-64
2022/01/30 12:31:33;;;;;;;25.35;5.30;;;20.90;41.80;;;;;;4427400;32;20078;-64
2022/01/30 12:34:14;;;;;;;20.50;5.13;;;20.90;41.90;;;;;;4428228;32;20066;-64
2022/01/30 12:36:43;;;;;;;18.58;4.95;;;20.90;41.90;;;;;;4428289;32;20086;-64
2022/01/30 12:39:14;;;;;;;17.55;4.72;;;21.00;41.90;;;;;;4425532;32;20106;-64
2022/01/30 12:41:41;;;;;;;22.55;5.00;;;21.00;41.90;;;;;;4427811;32;20101;-64
2022/01/30 12:44:10;;;;;;;17.80;4.88;;;21.00;41.80;;;;;;4428545;32;20092;-64
2022/01/30 12:46:46;;;;;;;22.23;5.05;;;20.90;41.60;;;;;;4428500;32;20118;-64
2022/01/30 12:49:17;;;;;;;17.40;4.88;;;20.90;41.60;;;;;;4428121;32;20237;-64
2022/01/30 12:51:57;;;;;;;19.10;5.00;;;20.90;41.70;;;;;;4428056;32;20093;-64
2022/01/30 12:54:26;;;;;;;16.02;5.13;;;20.90;41.70;;;;;;4428004;32;20160;-64
2022/01/30 12:56:55;;;;;;;16.95;4.13;;;21.00;41.80;;;;;;4427700;32;20078;-63
2022/01/30 12:59:25;;;;;;;16.88;4.97;;;20.90;41.70;;;;;;4427170;32;20311;-64
2022/01/30 13:01:52;;;;;;;16.95;4.15;;;21.00;41.80;;;;;;4428135;32;20101;-64
2022/01/30 13:04:20;;;;;;;17.65;4.70;;;21.00;41.70;;;;;;4428176;32;20406;-64
2022/01/30 13:06:48;;;;;;;15.82;4.50;;;21.00;41.80;;;;;;4427805;32;20126;-64
2022/01/30 13:09:25;;;;;;;21.73;4.75;;;21.00;41.80;;;;;;4428109;32;20529;-64
2022/01/30 13:12:00;;;;;;;19.13;4.40;;;21.00;41.70;;;;;;4427683;32;20597;-64
2022/01/30 13:14:33;;;;;;;20.92;4.72;;;20.90;41.60;;;;;;4414398;32;20146;-64
2022/01/30 13:17:00;;;;;;;19.08;4.75;;;20.90;41.70;;;;;;4428082;32;20363;-64
2022/01/30 13:19:45;;;;;;;15.93;4.80;;;20.80;41.90;;;;;;4428056;32;20407;-64
2022/01/30 13:22:23;;;;;;;15.93;4.28;;;20.80;42.00;;;;;;4428338;32;20097;-63
2022/01/30 13:24:59;;;;;;;16.52;4.60;;;20.80;42.10;;;;;;4428886;32;20074;-64
2022/01/30 13:27:25;;;;;;;13.32;4.10;;;20.80;42.20;;;;;;4431195;32;20078;-64
2022/01/30 13:29:54;;;;;;;16.60;4.55;;;20.80;42.10;;;;;;4430923;32;20075;-64
2022/01/30 13:32:23;;;;;;;16.02;4.45;;;20.80;42.10;;;;;;4431273;32;20101;-64
2022/01/30 13:34:49;;;;;;;15.38;3.90;;;20.90;42.20;;;;;;4429577;32;20078;-64
2022/01/30 13:37:19;;;;;;;17.67;4.22;;;20.90;42.30;;;;;;4431363;32;20421;-63
2022/01/30 13:48:01;;;;;;;13.95;4.00;;;21.00;42.80;;;;;;4430958;32;20079;-64
2022/01/30 13:50:33;;;;;;;18.88;4.57;;;21.00;42.90;;;;;;4431223;32;20141;-63
2022/01/30 13:53:06;;;;;;;15.18;3.70;;;21.00;42.90;;;;;;4414327;32;23482;-63
2022/01/30 13:55:36;;;;;;;9.55;3.28;;;21.00;43.00;;;;;;4428010;32;20228;-63
2022/01/30 13:58:03;;;;;;;15.27;3.72;;;21.10;43.10;;;;;;4427720;32;20089;-64